Date,TemperatureHighF,TemperatureAvgF,TemperatureLowF,DewpointHighF,DewpointAvgF,DewpointLowF,HumidityHigh,HumidityAvg,HumidityLow,PressureMaxIn,PressureMinIn,WindSpeedMaxMPH,WindSpeedAvgMPH,GustSpeedMaxMPH,PrecipitationSumIn
2013-1-1,66,56,48,64,54,44,94,93,88,30.09,29.86,20,5,20,2.40
2013-1-2,48,45,42,44,42,40,93,89,86,30.19,30.05,17,4,17,0.04
2013-1-3,54,45,40,40,38,35,92,77,49,30.33,30.16,15,3,16,0.00
2013-1-4,48,46,42,39,36,34,77,70,62,30.42,30.23,14,3,15,0.02
2013-1-5,47,45,43,43,42,37,94,89,70,30.28,30.14,11,2,12,0.61
2013-1-6,58,49,42,46,43,39,94,82,62,30.28,30.13,17,4,17,0.00
2013-1-7,57,48,39,45,41,37,93,78,57,30.27,30.05,14,2,14,0.01
2013-1-8,64,58,52,62,55,45,93,89,73,30.05,29.92,22,7,28,0.24
2013-1-9,68,65,62,67,63,60,94,93,91,30.07,29.89,23,6,23,2.69
2013-1-10,65,62,52,64,60,50,96,93,84,30.05,29.90,17,1,17,0.87
2013-1-11,71,60,47,67,55,46,96,85,56,30.09,29.90,9,1,10,0.04
2013-1-12,74,71,69,71,69,67,95,93,88,29.95,29.72,33,9,33,0.02
2013-1-13,72,55,45,69,53,43,96,92,87,30.03,29.72,30,8,33,0.13
2013-1-14,46,42,38,44,39,36,94,90,85,30.09,29.96,19,6,21,0.02
2013-1-15,41,38,36,38,36,34,94,93,88,30.01,29.89,16,5,18,0.29
2013-1-16,46,38,34,39,35,32,94,89,74,30.13,29.97,18,3,18,0.03
2013-1-17,59,44,32,39,34,28,94,71,41,30.36,30.12,18,2,18,0.00
2013-1-18,59,45,34,40,34,14,94,70,17,30.51,30.27,13,1,13,0.00
2013-1-19,63,45,33,50,40,32,95,85,51,30.33,30.17,13,0,13,0.01
2013-1-20,67,51,39,54,45,37,95,82,49,30.31,30.06,12,0,13,0.00
2013-1-21,69,54,42,55,47,40,99,80,49,30.27,30.06,6,0,9,0.01
2013-1-22,66,52,42,51,45,38,93,78,50,30.35,30.15,11,2,12,0.00
2013-1-23,69,56,42,59,52,41,96,86,67,30.38,30.21,20,3,20,0.00
2013-1-24,71,62,52,64,59,50,95,89,77,30.30,30.14,19,3,19,0.00
2013-1-25,74,64,55,64,60,54,94,86,64,30.24,30.09,21,4,21,0.01
2013-1-26,74,63,55,66,59,53,98,86,63,30.26,30.10,17,3,18,0.01
2013-1-27,74,67,59,65,62,56,93,84,72,30.22,30.09,24,7,24,0.00
2013-1-28,74,69,66,68,66,63,94,89,82,30.17,30.01,22,7,24,0.00
2013-1-29,75,71,68,70,68,66,94,92,84,30.03,29.67,30,14,31,0.00
2013-1-30,72,55,40,69,41,31,93,63,36,30.12,29.68,32,7,32,0.12
2013-1-31,61,48,35,42,35,25,94,65,28,30.34,30.10,21,2,21,0.00